LEIG weather

Igualada/Odena Airport
Barcelona, Catalonia, Spain

Public forecast

Using degrees Celsius for public forecast. Weather courtesy of forecast.io.

METAR (pilot weather report)

Closest report is Sabadell Airport, 20.7 nm (38.3 km) E. Retrieved 2019/05/24 06:30 UTC (0 seconds ago):

LELL 240630Z 29005KT 260V340 9999 -RA FEW015 SCT025 BKN040 16/15 Q1015

TAF (pilot weather forecast)

Closest forecast is Sabadell Airport, 20.7 nm (38.3 km) E. Retrieved 2019/05/24 03:27 UTC (3 hours ago):

TAF LELL 240200Z 2403/2503 VRB04KT 9999 FEW040 TX18/2413Z TN13/2406Z TEMPO 2406/2421 5000 SHRA SCT020TCU BKN040 BECMG 2410/2412 08007KT BECMG 2418/2420 27005KT